createdAt,value
2022-08-23T00:02:51.805Z,7.97
2022-08-23T00:07:57.392Z,8.23
2022-08-23T00:13:00.534Z,8.83
2022-08-23T00:18:03.768Z,11.02
2022-08-23T00:23:08.768Z,7.82
2022-08-23T00:28:12.563Z,5.72
2022-08-23T00:33:18.057Z,9.27
2022-08-23T00:38:32.419Z,6.95
2022-08-23T00:44:00.532Z,7.55
2022-08-23T00:49:09.125Z,12.48
2022-08-23T00:54:16.649Z,10.68
2022-08-23T00:59:20.973Z,8.82
2022-08-23T01:04:27.083Z,14.13
2022-08-23T01:09:32.008Z,9.90
2022-08-23T01:14:39.545Z,7.68
2022-08-23T01:19:48.620Z,9.82
2022-08-23T01:25:08.260Z,9.45
2022-08-23T01:30:19.550Z,13.35
2022-08-23T01:35:31.083Z,14.55
2022-08-23T01:40:36.529Z,7.13
2022-08-23T01:45:40.415Z,8.02
2022-08-23T01:50:46.354Z,9.90
2022-08-23T01:55:51.441Z,14.00
2022-08-23T02:00:56.418Z,8.63
2022-08-23T02:06:00.273Z,7.18
2022-08-23T02:11:10.198Z,11.45
2022-08-23T02:16:22.411Z,8.68
2022-08-23T02:21:26.473Z,8.40
2022-08-23T02:26:31.485Z,9.55
2022-08-23T02:31:35.497Z,5.78
2022-08-23T02:36:40.259Z,7.07
2022-08-23T02:46:48.945Z,8.95
2022-08-23T02:51:52.263Z,8.23
2022-08-23T02:56:56.874Z,10.45
2022-08-23T03:02:00.134Z,10.87
2022-08-23T03:07:08.655Z,9.35
2022-08-23T03:12:13.867Z,11.55
2022-08-23T03:17:22.786Z,12.23
2022-08-23T03:22:26.653Z,9.85
2022-08-23T03:27:33.225Z,7.53
2022-08-23T03:32:42.364Z,12.68
2022-08-23T03:37:55.316Z,8.05
2022-08-23T03:43:01.364Z,7.30
2022-08-23T03:48:05.969Z,10.73
2022-08-23T03:53:12.195Z,9.93
2022-08-23T03:58:19.332Z,9.23
2022-08-23T04:08:34.448Z,8.98
2022-08-23T04:13:42.998Z,6.90
2022-08-23T04:18:48.454Z,13.02
2022-08-23T04:23:54.043Z,8.88
2022-08-23T04:28:58.542Z,10.55
2022-08-23T04:34:02.716Z,11.87
2022-08-23T04:39:07.664Z,9.98
2022-08-23T04:44:12.273Z,9.27
2022-08-23T04:49:16.441Z,13.45
2022-08-23T04:54:21.368Z,16.10
2022-08-23T04:59:44.086Z,8.82
2022-08-23T05:04:47.365Z,9.90
2022-08-23T05:09:50.856Z,8.40
2022-08-23T05:14:55.676Z,12.75
2022-08-23T05:19:59.273Z,13.82
2022-08-23T05:25:02.455Z,9.75
2022-08-23T05:30:08.484Z,10.07
2022-08-23T05:35:18.865Z,9.65
2022-08-23T05:40:23.304Z,10.07
2022-08-23T05:45:44.874Z,7.95
2022-08-23T05:50:48.445Z,7.43
2022-08-23T05:55:52.186Z,9.85
2022-08-23T06:00:58.390Z,10.38
2022-08-23T06:06:03.184Z,9.43
2022-08-23T06:11:14.035Z,11.05
2022-08-23T06:16:26.400Z,9.23
2022-08-23T06:21:30.925Z,7.22
2022-08-23T06:26:38.283Z,6.90
2022-08-23T06:31:48.672Z,8.95
2022-08-23T06:37:05.059Z,7.50
2022-08-23T06:42:38.430Z,6.25
2022-08-23T06:47:45.938Z,7.00
2022-08-23T06:58:00.815Z,9.82
2022-08-23T07:03:18.130Z,7.63
2022-08-23T07:08:40.292Z,5.37
2022-08-23T07:13:43.955Z,9.10
2022-08-23T07:18:49.915Z,6.38
2022-08-23T07:23:53.949Z,7.35
2022-08-23T07:28:57.999Z,7.80
2022-08-23T07:34:06.300Z,9.53
2022-08-23T07:39:12.696Z,5.38
2022-08-23T07:44:18.066Z,10.57
2022-08-23T07:49:29.450Z,7.72
2022-08-23T07:54:34.413Z,5.65
2022-08-23T07:59:43.592Z,5.13
2022-08-23T08:05:06.991Z,8.38
2022-08-23T08:10:11.711Z,5.90
2022-08-23T08:20:22.717Z,7.97
2022-08-23T08:25:41.352Z,7.00
2022-08-23T08:30:45.599Z,6.18
2022-08-23T08:35:57.780Z,6.50
2022-08-23T08:41:13.417Z,4.57
2022-08-23T08:46:23.231Z,6.95
2022-08-23T08:51:41.735Z,7.88
2022-08-23T08:56:49.600Z,6.75
2022-08-23T09:01:58.881Z,5.55
2022-08-23T09:07:21.505Z,4.85
2022-08-23T09:12:33.578Z,4.07
2022-08-23T09:17:44.182Z,6.05
2022-08-23T09:22:52.571Z,4.65
2022-08-23T09:28:02.896Z,9.25
2022-08-23T09:33:16.172Z,4.28
2022-08-23T09:38:21.578Z,10.27
2022-08-23T09:43:44.532Z,4.80
2022-08-23T09:48:48.232Z,5.65
2022-08-23T09:54:10.208Z,8.50
2022-08-23T09:59:26.952Z,5.03
2022-08-23T10:04:41.715Z,3.95
2022-08-23T10:09:46.518Z,7.35
2022-08-23T10:14:50.118Z,4.90
2022-08-23T10:20:00.915Z,4.47
2022-08-23T10:25:12.524Z,3.90
2022-08-23T10:30:19.254Z,6.75
2022-08-23T10:35:32.477Z,4.97
2022-08-23T10:40:45.782Z,5.43
2022-08-23T10:45:50.013Z,2.42
2022-08-23T10:51:09.331Z,4.43
2022-08-23T10:56:19.169Z,6.35
2022-08-23T11:01:35.260Z,5.05
2022-08-23T11:06:47.197Z,4.18
2022-08-23T11:12:23.450Z,3.50
2022-08-23T11:17:29.965Z,4.85
2022-08-23T11:22:54.989Z,4.88
2022-08-23T11:28:39.877Z,2.60
2022-08-23T11:33:47.844Z,2.75
2022-08-23T11:39:19.644Z,3.55
2022-08-23T11:44:39.360Z,4.88
2022-08-23T11:50:16.158Z,5.82
2022-08-23T11:55:42.946Z,2.65
2022-08-23T12:00:57.934Z,2.78
2022-08-23T12:06:08.943Z,4.95
2022-08-23T12:11:13.439Z,4.50
2022-08-23T12:16:34.518Z,6.22
2022-08-23T12:21:49.930Z,4.67
2022-08-23T12:27:07.558Z,3.67
2022-08-23T12:32:20.326Z,3.78
2022-08-23T12:37:34.494Z,4.70
2022-08-23T12:42:39.583Z,5.20
2022-08-23T12:47:57.028Z,6.63
2022-08-23T12:53:03.876Z,4.72
2022-08-23T12:58:08.504Z,3.22
2022-08-23T13:03:17.961Z,3.83
2022-08-23T13:08:34.141Z,2.42
2022-08-23T13:13:41.280Z,3.95
2022-08-23T13:18:46.505Z,2.63
2022-08-23T13:23:50.919Z,4.38
2022-08-23T13:29:07.097Z,4.65
2022-08-23T13:34:11.766Z,3.72
2022-08-23T13:39:15.158Z,3.67
2022-08-23T13:44:20.227Z,3.60
2022-08-23T13:49:28.670Z,4.88
2022-08-23T13:54:33.730Z,3.08
2022-08-23T13:59:39.257Z,3.38
2022-08-23T14:04:44.659Z,4.30
2022-08-23T14:09:50.990Z,4.75
2022-08-23T14:14:57.711Z,3.60
2022-08-23T14:25:28.098Z,3.83
2022-08-23T14:30:34.233Z,5.15
2022-08-23T14:35:38.720Z,3.75
2022-08-23T14:45:55.618Z,3.85
2022-08-23T14:51:00.227Z,4.57
2022-08-23T14:56:20.636Z,4.95
2022-08-23T15:01:25.040Z,3.92
2022-08-23T15:06:30.145Z,4.55
2022-08-23T15:16:56.760Z,2.10
2022-08-23T15:22:06.531Z,1.85
2022-08-23T15:27:24.089Z,3.78
2022-08-23T15:32:27.297Z,4.90
2022-08-23T15:37:34.399Z,4.43
2022-08-23T15:42:38.296Z,4.93
2022-08-23T15:47:47.445Z,6.03
2022-08-23T15:52:52.079Z,4.03
2022-08-23T15:57:58.170Z,4.53
2022-08-23T16:03:19.198Z,4.43
2022-08-23T16:08:28.068Z,6.20
2022-08-23T16:13:31.860Z,5.05
2022-08-23T16:18:35.080Z,4.10
2022-08-23T16:23:40.127Z,6.50
2022-08-23T16:28:44.501Z,6.10
2022-08-23T16:33:50.362Z,5.28
2022-08-23T16:38:56.057Z,2.70
2022-08-23T16:43:59.363Z,3.38
2022-08-23T16:49:02.893Z,4.00
2022-08-23T16:54:08.507Z,4.80
2022-08-23T16:59:13.831Z,8.10
2022-08-23T17:04:17.901Z,5.60
2022-08-23T17:09:24.880Z,7.00
2022-08-23T17:14:28.343Z,3.67
2022-08-23T17:19:31.542Z,3.25
2022-08-23T17:24:37.291Z,3.45
2022-08-23T17:29:41.242Z,5.50
2022-08-23T17:34:44.928Z,6.53
2022-08-23T17:39:50.651Z,5.30
2022-08-23T17:44:56.439Z,6.15
2022-08-23T17:50:00.483Z,4.53
2022-08-23T17:55:06.278Z,4.43
2022-08-23T18:00:12.642Z,5.35
2022-08-23T18:05:16.574Z,6.60
2022-08-23T18:10:21.552Z,7.32
2022-08-23T18:20:30.592Z,7.75
2022-08-23T18:25:35.480Z,8.18
2022-08-23T18:30:40.252Z,7.00
2022-08-23T18:40:49.182Z,5.70
2022-08-23T18:45:54.760Z,6.00
2022-08-23T18:50:58.215Z,7.53
2022-08-23T18:56:03.445Z,6.63
2022-08-23T19:01:23.967Z,6.22
2022-08-23T19:06:28.156Z,6.88
2022-08-23T19:11:33.777Z,11.53
2022-08-23T19:16:37.783Z,9.75
2022-08-23T19:21:41.108Z,10.63
2022-08-23T19:26:47.651Z,9.73
2022-08-23T19:31:51.098Z,9.85
2022-08-23T19:37:00.896Z,7.60
2022-08-23T19:42:11.441Z,7.28
2022-08-23T19:47:19.719Z,7.25
2022-08-23T19:52:24.935Z,8.80
2022-08-23T19:57:29.731Z,6.70
2022-08-23T20:02:33.273Z,7.18
2022-08-23T20:07:37.862Z,10.55
2022-08-23T20:12:43.341Z,10.23
2022-08-23T20:17:46.662Z,7.60
2022-08-23T20:23:08.823Z,7.28
2022-08-23T20:28:13.618Z,11.32
2022-08-23T20:33:16.724Z,6.28
2022-08-23T20:38:32.873Z,7.22
2022-08-23T20:43:39.296Z,9.30
2022-08-23T20:48:43.171Z,5.82
2022-08-23T20:53:47.931Z,8.10
2022-08-23T20:58:52.898Z,7.27
2022-08-23T21:09:01.296Z,7.30
2022-08-23T21:14:06.500Z,8.23
2022-08-23T21:19:10.879Z,12.48
2022-08-23T21:24:14.506Z,9.73
2022-08-23T21:29:19.673Z,8.35
2022-08-23T21:39:27.280Z,8.27
2022-08-23T21:44:32.354Z,8.13
2022-08-23T21:54:43.400Z,9.05
2022-08-23T21:59:49.270Z,8.98
2022-08-23T22:04:52.420Z,12.88
2022-08-23T22:09:55.577Z,10.45
2022-08-23T22:15:00.152Z,10.23
2022-08-23T22:20:05.580Z,12.07
2022-08-23T22:25:09.593Z,9.73
2022-08-23T22:30:15.059Z,7.90
2022-08-23T22:35:19.663Z,8.13
2022-08-23T22:40:23.180Z,8.98
2022-08-23T22:45:27.744Z,8.93
2022-08-23T22:50:31.957Z,10.45
2022-08-23T22:55:35.048Z,13.23
2022-08-23T23:00:43.303Z,8.98
2022-08-23T23:05:46.891Z,8.95
2022-08-23T23:10:50.166Z,10.68
2022-08-23T23:15:54.953Z,9.65
2022-08-23T23:21:00.252Z,13.32
2022-08-23T23:26:03.805Z,9.75
2022-08-23T23:31:08.410Z,10.20
2022-08-23T23:36:12.557Z,9.82
2022-08-23T23:41:21.008Z,9.63
2022-08-23T23:46:26.069Z,10.95
2022-08-23T23:51:30.826Z,11.80
2022-08-23T23:56:34.323Z,10.15
